sensor_id;sensor_type;location;lat;lon;timestamp;P1;durP1;ratioP1;P2;durP2;ratioP2
80404;SDS011;69733;48.744;9.176;2023-05-10T00:01:45;1.58;;;0.80;;
80404;SDS011;69733;48.744;9.176;2023-05-10T00:04:11;1.17;;;0.50;;
80404;SDS011;69733;48.744;9.176;2023-05-10T00:06:36;1.95;;;0.57;;
80404;SDS011;69733;48.744;9.176;2023-05-10T00:09:01;2.00;;;0.50;;
80404;SDS011;69733;48.744;9.176;2023-05-10T00:11:27;3.28;;;0.73;;
80404;SDS011;69733;48.744;9.176;2023-05-10T00:13:53;1.23;;;0.40;;
80404;SDS011;69733;48.744;9.176;2023-05-10T00:16:18;1.15;;;0.45;;
80404;SDS011;69733;48.744;9.176;2023-05-10T00:18:46;1.00;;;0.47;;
80404;SDS011;69733;48.744;9.176;2023-05-10T00:21:14;2.50;;;0.60;;
80404;SDS011;69733;48.744;9.176;2023-05-10T00:23:42;1.13;;;0.40;;
80404;SDS011;69733;48.744;9.176;2023-05-10T00:26:08;0.47;;;0.30;;
80404;SDS011;69733;48.744;9.176;2023-05-10T00:28:33;1.67;;;0.50;;
80404;SDS011;69733;48.744;9.176;2023-05-10T00:30:58;0.50;;;0.20;;
80404;SDS011;69733;48.744;9.176;2023-05-10T00:33:27;2.50;;;0.50;;
80404;SDS011;69733;48.744;9.176;2023-05-10T00:35:52;0.77;;;0.30;;
80404;SDS011;69733;48.744;9.176;2023-05-10T00:38:17;0.60;;;0.30;;
80404;SDS011;69733;48.744;9.176;2023-05-10T00:40:43;1.02;;;0.20;;
80404;SDS011;69733;48.744;9.176;2023-05-10T00:43:11;0.40;;;0.20;;
80404;SDS011;69733;48.744;9.176;2023-05-10T00:45:37;1.27;;;0.20;;
80404;SDS011;69733;48.744;9.176;2023-05-10T00:48:02;0.80;;;0.30;;
80404;SDS011;69733;48.744;9.176;2023-05-10T00:50:28;0.88;;;0.20;;
80404;SDS011;69733;48.744;9.176;2023-05-10T00:52:55;0.90;;;0.20;;
80404;SDS011;69733;48.744;9.176;2023-05-10T00:55:22;1.50;;;0.10;;
80404;SDS011;69733;48.744;9.176;2023-05-10T00:57:48;2.38;;;0.30;;
80404;SDS011;69733;48.744;9.176;2023-05-10T01:00:14;0.60;;;0.20;;
80404;SDS011;69733;48.744;9.176;2023-05-10T01:05:08;0.52;;;0.10;;
80404;SDS011;69733;48.744;9.176;2023-05-10T01:07:34;0.40;;;0.30;;
80404;SDS011;69733;48.744;9.176;2023-05-10T01:15:56;0.10;;;0.10;;
80404;SDS011;69733;48.744;9.176;2023-05-10T01:18:22;1.15;;;0.20;;
80404;SDS011;69733;48.744;9.176;2023-05-10T01:20:51;0.10;;;0.10;;
80404;SDS011;69733;48.744;9.176;2023-05-10T01:23:37;0.28;;;0.10;;
80404;SDS011;69733;48.744;9.176;2023-05-10T01:34:27;0.52;;;0.20;;
80404;SDS011;69733;48.744;9.176;2023-05-10T01:37:02;1.13;;;0.30;;
80404;SDS011;69733;48.744;9.176;2023-05-10T01:39:42;0.52;;;0.20;;
80404;SDS011;69733;48.744;9.176;2023-05-10T01:42:14;0.60;;;0.10;;
80404;SDS011;69733;48.744;9.176;2023-05-10T01:45:31;0.70;;;0.10;;
80404;SDS011;69733;48.744;9.176;2023-05-10T01:48:02;0.32;;;0.10;;
80404;SDS011;69733;48.744;9.176;2023-05-10T01:50:30;0.30;;;0.15;;
80404;SDS011;69733;48.744;9.176;2023-05-10T01:52:57;0.32;;;0.20;;
80404;SDS011;69733;48.744;9.176;2023-05-10T01:55:27;0.38;;;0.10;;
80404;SDS011;69733;48.744;9.176;2023-05-10T01:58:03;0.17;;;0.10;;
80404;SDS011;69733;48.744;9.176;2023-05-10T02:00:31;1.38;;;0.20;;
80404;SDS011;69733;48.744;9.176;2023-05-10T02:02:58;0.63;;;0.20;;
80404;SDS011;69733;48.744;9.176;2023-05-10T02:05:26;0.40;;;0.13;;
80404;SDS011;69733;48.744;9.176;2023-05-10T02:07:54;0.80;;;0.17;;
80404;SDS011;69733;48.744;9.176;2023-05-10T02:10:20;0.40;;;0.20;;
80404;SDS011;69733;48.744;9.176;2023-05-10T02:12:46;0.60;;;0.20;;
80404;SDS011;69733;48.744;9.176;2023-05-10T02:15:15;1.15;;;0.10;;
80404;SDS011;69733;48.744;9.176;2023-05-10T02:17:45;0.73;;;0.20;;
80404;SDS011;69733;48.744;9.176;2023-05-10T02:20:11;0.30;;;0.10;;
80404;SDS011;69733;48.744;9.176;2023-05-10T02:22:39;0.20;;;0.10;;
80404;SDS011;69733;48.744;9.176;2023-05-10T02:25:05;0.63;;;0.17;;
80404;SDS011;69733;48.744;9.176;2023-05-10T02:27:38;0.80;;;0.28;;
80404;SDS011;69733;48.744;9.176;2023-05-10T02:30:07;0.60;;;0.20;;
80404;SDS011;69733;48.744;9.176;2023-05-10T02:32:34;0.38;;;0.20;;
80404;SDS011;69733;48.744;9.176;2023-05-10T02:37:28;0.40;;;0.20;;
80404;SDS011;69733;48.744;9.176;2023-05-10T02:39:55;3.80;;;0.30;;
80404;SDS011;69733;48.744;9.176;2023-05-10T02:42:27;1.08;;;0.30;;
80404;SDS011;69733;48.744;9.176;2023-05-10T02:44:57;0.60;;;0.10;;
80404;SDS011;69733;48.744;9.176;2023-05-10T02:47:26;1.33;;;0.15;;
80404;SDS011;69733;48.744;9.176;2023-05-10T02:49:52;0.63;;;0.20;;
80404;SDS011;69733;48.744;9.176;2023-05-10T02:52:19;0.30;;;0.10;;
80404;SDS011;69733;48.744;9.176;2023-05-10T02:55:11;0.52;;;0.10;;
80404;SDS011;69733;48.744;9.176;2023-05-10T02:57:41;0.43;;;0.20;;
80404;SDS011;69733;48.744;9.176;2023-05-10T03:00:13;1.80;;;0.40;;
80404;SDS011;69733;48.744;9.176;2023-05-10T03:02:38;0.52;;;0.20;;
80404;SDS011;69733;48.744;9.176;2023-05-10T03:05:04;1.07;;;0.40;;
80404;SDS011;69733;48.744;9.176;2023-05-10T03:07:33;0.88;;;0.38;;
80404;SDS011;69733;48.744;9.176;2023-05-10T03:09:58;0.57;;;0.30;;
80404;SDS011;69733;48.744;9.176;2023-05-10T03:15:31;1.30;;;0.47;;
80404;SDS011;69733;48.744;9.176;2023-05-10T03:18:23;0.60;;;0.20;;
80404;SDS011;69733;48.744;9.176;2023-05-10T03:20:59;2.33;;;0.40;;
80404;SDS011;69733;48.744;9.176;2023-05-10T03:26:23;0.82;;;0.40;;
80404;SDS011;69733;48.744;9.176;2023-05-10T03:28:50;1.48;;;0.70;;
80404;SDS011;69733;48.744;9.176;2023-05-10T03:31:25;0.88;;;0.52;;
80404;SDS011;69733;48.744;9.176;2023-05-10T03:33:51;1.08;;;0.50;;
80404;SDS011;69733;48.744;9.176;2023-05-10T03:36:17;1.13;;;0.50;;
80404;SDS011;69733;48.744;9.176;2023-05-10T03:38:43;1.52;;;0.55;;
80404;SDS011;69733;48.744;9.176;2023-05-10T03:41:08;2.23;;;0.60;;
80404;SDS011;69733;48.744;9.176;2023-05-10T03:43:34;2.25;;;0.57;;
80404;SDS011;69733;48.744;9.176;2023-05-10T03:46:01;2.10;;;0.60;;
80404;SDS011;69733;48.744;9.176;2023-05-10T03:48:30;2.15;;;0.80;;
80404;SDS011;69733;48.744;9.176;2023-05-10T03:50:55;1.58;;;0.90;;
80404;SDS011;69733;48.744;9.176;2023-05-10T03:53:21;1.93;;;0.90;;
80404;SDS011;69733;48.744;9.176;2023-05-10T03:55:47;1.80;;;0.80;;
80404;SDS011;69733;48.744;9.176;2023-05-10T03:58:12;1.70;;;0.77;;
80404;SDS011;69733;48.744;9.176;2023-05-10T04:00:40;2.00;;;0.80;;
80404;SDS011;69733;48.744;9.176;2023-05-10T04:03:10;1.50;;;0.70;;
80404;SDS011;69733;48.744;9.176;2023-05-10T04:05:36;3.28;;;0.90;;
80404;SDS011;69733;48.744;9.176;2023-05-10T04:08:05;2.25;;;0.85;;
80404;SDS011;69733;48.744;9.176;2023-05-10T04:10:31;2.28;;;0.73;;
80404;SDS011;69733;48.744;9.176;2023-05-10T04:12:57;2.33;;;0.80;;
80404;SDS011;69733;48.744;9.176;2023-05-10T04:15:22;1.85;;;1.02;;
80404;SDS011;69733;48.744;9.176;2023-05-10T04:17:48;2.08;;;0.70;;
80404;SDS011;69733;48.744;9.176;2023-05-10T04:20:13;1.20;;;0.50;;
80404;SDS011;69733;48.744;9.176;2023-05-10T04:22:39;1.50;;;0.70;;
80404;SDS011;69733;48.744;9.176;2023-05-10T04:25:04;1.95;;;0.70;;
80404;SDS011;69733;48.744;9.176;2023-05-10T04:27:31;1.88;;;0.80;;
80404;SDS011;69733;48.744;9.176;2023-05-10T04:30:02;1.50;;;0.63;;
80404;SDS011;69733;48.744;9.176;2023-05-10T04:32:28;1.42;;;0.57;;
80404;SDS011;69733;48.744;9.176;2023-05-10T04:34:54;2.42;;;0.75;;
80404;SDS011;69733;48.744;9.176;2023-05-10T04:37:19;3.23;;;0.73;;
80404;SDS011;69733;48.744;9.176;2023-05-10T04:39:46;1.80;;;0.65;;
80404;SDS011;69733;48.744;9.176;2023-05-10T04:42:11;1.40;;;0.45;;
80404;SDS011;69733;48.744;9.176;2023-05-10T04:44:37;2.20;;;0.70;;
80404;SDS011;69733;48.744;9.176;2023-05-10T04:47:02;2.58;;;0.65;;
80404;SDS011;69733;48.744;9.176;2023-05-10T04:49:31;2.47;;;0.90;;
80404;SDS011;69733;48.744;9.176;2023-05-10T04:51:56;1.83;;;0.60;;
80404;SDS011;69733;48.744;9.176;2023-05-10T04:54:21;1.47;;;0.80;;
80404;SDS011;69733;48.744;9.176;2023-05-10T04:56:47;2.70;;;0.50;;
80404;SDS011;69733;48.744;9.176;2023-05-10T04:59:12;2.03;;;0.52;;
80404;SDS011;69733;48.744;9.176;2023-05-10T05:01:37;2.00;;;0.70;;
80404;SDS011;69733;48.744;9.176;2023-05-10T05:04:03;1.57;;;0.50;;
80404;SDS011;69733;48.744;9.176;2023-05-10T05:06:28;2.75;;;0.70;;
80404;SDS011;69733;48.744;9.176;2023-05-10T05:08:53;1.50;;;0.88;;
80404;SDS011;69733;48.744;9.176;2023-05-10T05:11:19;2.17;;;0.67;;
80404;SDS011;69733;48.744;9.176;2023-05-10T05:13:45;1.30;;;0.50;;
80404;SDS011;69733;48.744;9.176;2023-05-10T05:16:11;2.67;;;0.70;;
80404;SDS011;69733;48.744;9.176;2023-05-10T05:18:36;2.87;;;0.80;;
80404;SDS011;69733;48.744;9.176;2023-05-10T05:21:01;3.38;;;0.70;;
80404;SDS011;69733;48.744;9.176;2023-05-10T05:23:27;1.80;;;0.90;;
80404;SDS011;69733;48.744;9.176;2023-05-10T05:25:52;1.77;;;0.60;;
80404;SDS011;69733;48.744;9.176;2023-05-10T05:28:18;3.15;;;0.60;;
80404;SDS011;69733;48.744;9.176;2023-05-10T05:30:44;1.30;;;0.63;;
80404;SDS011;69733;48.744;9.176;2023-05-10T05:33:09;2.55;;;0.80;;
80404;SDS011;69733;48.744;9.176;2023-05-10T05:35:35;1.73;;;0.90;;
80404;SDS011;69733;48.744;9.176;2023-05-10T05:38:00;1.83;;;0.80;;
80404;SDS011;69733;48.744;9.176;2023-05-10T05:40:26;3.30;;;0.70;;
80404;SDS011;69733;48.744;9.176;2023-05-10T05:42:51;1.27;;;0.80;;
80404;SDS011;69733;48.744;9.176;2023-05-10T05:45:16;2.22;;;0.98;;
80404;SDS011;69733;48.744;9.176;2023-05-10T05:47:41;2.10;;;0.67;;
80404;SDS011;69733;48.744;9.176;2023-05-10T05:50:07;2.85;;;0.98;;
80404;SDS011;69733;48.744;9.176;2023-05-10T05:52:33;2.58;;;0.70;;
80404;SDS011;69733;48.744;9.176;2023-05-10T05:54:58;2.60;;;0.93;;
80404;SDS011;69733;48.744;9.176;2023-05-10T05:57:24;1.67;;;1.20;;
80404;SDS011;69733;48.744;9.176;2023-05-10T06:00:12;1.63;;;0.70;;
80404;SDS011;69733;48.744;9.176;2023-05-10T06:02:38;1.80;;;0.70;;
80404;SDS011;69733;48.744;9.176;2023-05-10T06:05:03;1.85;;;0.70;;
80404;SDS011;69733;48.744;9.176;2023-05-10T06:07:29;2.92;;;0.90;;
80404;SDS011;69733;48.744;9.176;2023-05-10T06:09:54;1.90;;;0.80;;
80404;SDS011;69733;48.744;9.176;2023-05-10T06:12:19;1.65;;;0.88;;
80404;SDS011;69733;48.744;9.176;2023-05-10T06:14:45;2.67;;;1.10;;
80404;SDS011;69733;48.744;9.176;2023-05-10T06:17:10;3.20;;;1.03;;
80404;SDS011;69733;48.744;9.176;2023-05-10T06:19:41;2.17;;;1.08;;
80404;SDS011;69733;48.744;9.176;2023-05-10T06:22:09;2.38;;;1.30;;
80404;SDS011;69733;48.744;9.176;2023-05-10T06:24:35;3.75;;;1.38;;
80404;SDS011;69733;48.744;9.176;2023-05-10T06:27:00;3.83;;;1.03;;
80404;SDS011;69733;48.744;9.176;2023-05-10T06:29:26;2.65;;;1.05;;
80404;SDS011;69733;48.744;9.176;2023-05-10T06:31:54;3.00;;;0.80;;
80404;SDS011;69733;48.744;9.176;2023-05-10T06:34:19;1.83;;;0.93;;
80404;SDS011;69733;48.744;9.176;2023-05-10T06:36:51;3.30;;;1.08;;
80404;SDS011;69733;48.744;9.176;2023-05-10T06:39:17;2.03;;;0.98;;
80404;SDS011;69733;48.744;9.176;2023-05-10T06:41:42;1.73;;;0.98;;
80404;SDS011;69733;48.744;9.176;2023-05-10T06:44:11;2.10;;;1.00;;
80404;SDS011;69733;48.744;9.176;2023-05-10T06:46:36;2.77;;;1.07;;
80404;SDS011;69733;48.744;9.176;2023-05-10T06:49:01;2.30;;;1.25;;
80404;SDS011;69733;48.744;9.176;2023-05-10T06:51:27;1.77;;;1.00;;
80404;SDS011;69733;48.744;9.176;2023-05-10T06:53:52;2.85;;;1.10;;
80404;SDS011;69733;48.744;9.176;2023-05-10T06:56:17;2.43;;;1.17;;
80404;SDS011;69733;48.744;9.176;2023-05-10T06:58:43;1.92;;;1.15;;
80404;SDS011;69733;48.744;9.176;2023-05-10T07:01:09;2.28;;;0.90;;
80404;SDS011;69733;48.744;9.176;2023-05-10T07:03:34;1.90;;;0.90;;
80404;SDS011;69733;48.744;9.176;2023-05-10T07:06:02;4.73;;;1.10;;
80404;SDS011;69733;48.744;9.176;2023-05-10T07:08:31;1.73;;;0.80;;
80404;SDS011;69733;48.744;9.176;2023-05-10T07:11:00;2.80;;;1.10;;
80404;SDS011;69733;48.744;9.176;2023-05-10T07:13:26;2.22;;;1.02;;
80404;SDS011;69733;48.744;9.176;2023-05-10T07:15:59;3.38;;;1.20;;
80404;SDS011;69733;48.744;9.176;2023-05-10T07:18:25;2.03;;;1.20;;
80404;SDS011;69733;48.744;9.176;2023-05-10T07:20:51;2.78;;;1.13;;
80404;SDS011;69733;48.744;9.176;2023-05-10T07:23:16;3.58;;;1.13;;
80404;SDS011;69733;48.744;9.176;2023-05-10T07:25:48;3.58;;;1.05;;
80404;SDS011;69733;48.744;9.176;2023-05-10T07:28:14;2.13;;;0.93;;
80404;SDS011;69733;48.744;9.176;2023-05-10T07:30:42;2.03;;;1.00;;
80404;SDS011;69733;48.744;9.176;2023-05-10T07:33:30;2.85;;;1.30;;
80404;SDS011;69733;48.744;9.176;2023-05-10T07:35:56;1.77;;;0.88;;
80404;SDS011;69733;48.744;9.176;2023-05-10T07:38:21;3.35;;;0.90;;
80404;SDS011;69733;48.744;9.176;2023-05-10T07:40:47;3.55;;;1.00;;
80404;SDS011;69733;48.744;9.176;2023-05-10T07:43:12;2.03;;;0.88;;
80404;SDS011;69733;48.744;9.176;2023-05-10T07:45:40;1.55;;;0.70;;
80404;SDS011;69733;48.744;9.176;2023-05-10T07:48:06;2.33;;;0.82;;
80404;SDS011;69733;48.744;9.176;2023-05-10T07:50:34;1.83;;;0.90;;
80404;SDS011;69733;48.744;9.176;2023-05-10T07:52:59;1.50;;;0.60;;
80404;SDS011;69733;48.744;9.176;2023-05-10T07:55:27;1.85;;;0.80;;
80404;SDS011;69733;48.744;9.176;2023-05-10T07:57:53;2.67;;;1.10;;
80404;SDS011;69733;48.744;9.176;2023-05-10T08:00:19;2.77;;;1.10;;
80404;SDS011;69733;48.744;9.176;2023-05-10T08:02:45;1.70;;;0.73;;
80404;SDS011;69733;48.744;9.176;2023-05-10T08:05:11;1.73;;;0.60;;
80404;SDS011;69733;48.744;9.176;2023-05-10T08:07:36;1.42;;;0.57;;
80404;SDS011;69733;48.744;9.176;2023-05-10T08:10:02;1.88;;;0.60;;
80404;SDS011;69733;48.744;9.176;2023-05-10T08:12:28;1.45;;;0.60;;
80404;SDS011;69733;48.744;9.176;2023-05-10T08:14:53;1.50;;;0.40;;
80404;SDS011;69733;48.744;9.176;2023-05-10T08:17:18;2.30;;;0.70;;
80404;SDS011;69733;48.744;9.176;2023-05-10T08:19:44;1.10;;;0.50;;
80404;SDS011;69733;48.744;9.176;2023-05-10T08:22:09;1.33;;;0.60;;
80404;SDS011;69733;48.744;9.176;2023-05-10T08:24:35;1.30;;;0.50;;
80404;SDS011;69733;48.744;9.176;2023-05-10T08:27:03;1.90;;;0.63;;
80404;SDS011;69733;48.744;9.176;2023-05-10T08:29:30;1.60;;;0.73;;
80404;SDS011;69733;48.744;9.176;2023-05-10T08:32:01;1.95;;;0.60;;
80404;SDS011;69733;48.744;9.176;2023-05-10T08:34:26;2.88;;;0.70;;
80404;SDS011;69733;48.744;9.176;2023-05-10T08:36:52;0.90;;;0.40;;
80404;SDS011;69733;48.744;9.176;2023-05-10T08:39:17;1.10;;;0.50;;
80404;SDS011;69733;48.744;9.176;2023-05-10T08:41:43;1.08;;;0.50;;
80404;SDS011;69733;48.744;9.176;2023-05-10T08:44:09;1.33;;;0.60;;
80404;SDS011;69733;48.744;9.176;2023-05-10T08:46:35;1.67;;;0.40;;
80404;SDS011;69733;48.744;9.176;2023-05-10T08:49:04;2.17;;;0.40;;
80404;SDS011;69733;48.744;9.176;2023-05-10T08:51:36;1.52;;;0.47;;
80404;SDS011;69733;48.744;9.176;2023-05-10T08:54:05;2.10;;;0.88;;
80404;SDS011;69733;48.744;9.176;2023-05-10T08:56:31;0.68;;;0.40;;
80404;SDS011;69733;48.744;9.176;2023-05-10T08:58:56;1.05;;;0.47;;
80404;SDS011;69733;48.744;9.176;2023-05-10T09:01:22;0.80;;;0.40;;
80404;SDS011;69733;48.744;9.176;2023-05-10T09:03:48;1.77;;;0.50;;
80404;SDS011;69733;48.744;9.176;2023-05-10T09:06:13;1.77;;;0.60;;
80404;SDS011;69733;48.744;9.176;2023-05-10T09:08:40;1.80;;;0.57;;
80404;SDS011;69733;48.744;9.176;2023-05-10T09:11:06;2.25;;;0.60;;
80404;SDS011;69733;48.744;9.176;2023-05-10T09:13:33;2.03;;;0.43;;
80404;SDS011;69733;48.744;9.176;2023-05-10T09:18:27;1.67;;;0.60;;
80404;SDS011;69733;48.744;9.176;2023-05-10T09:20:53;1.20;;;0.43;;
80404;SDS011;69733;48.744;9.176;2023-05-10T09:23:19;6.18;;;0.82;;
80404;SDS011;69733;48.744;9.176;2023-05-10T09:25:44;1.13;;;0.40;;
80404;SDS011;69733;48.744;9.176;2023-05-10T09:28:10;0.85;;;0.40;;
80404;SDS011;69733;48.744;9.176;2023-05-10T09:30:36;1.98;;;0.50;;
80404;SDS011;69733;48.744;9.176;2023-05-10T09:33:02;0.90;;;0.40;;
80404;SDS011;69733;48.744;9.176;2023-05-10T09:35:28;2.83;;;0.50;;
80404;SDS011;69733;48.744;9.176;2023-05-10T09:37:57;1.70;;;0.38;;
80404;SDS011;69733;48.744;9.176;2023-05-10T09:42:59;1.75;;;0.60;;
80404;SDS011;69733;48.744;9.176;2023-05-10T09:45:27;1.35;;;1.10;;
80404;SDS011;69733;48.744;9.176;2023-05-10T09:47:54;1.98;;;0.40;;
80404;SDS011;69733;48.744;9.176;2023-05-10T09:50:19;1.80;;;0.40;;
80404;SDS011;69733;48.744;9.176;2023-05-10T09:52:49;1.67;;;0.38;;
80404;SDS011;69733;48.744;9.176;2023-05-10T09:55:23;1.02;;;0.30;;
80404;SDS011;69733;48.744;9.176;2023-05-10T09:57:57;1.95;;;1.55;;
80404;SDS011;69733;48.744;9.176;2023-05-10T10:00:24;1.02;;;0.45;;
80404;SDS011;69733;48.744;9.176;2023-05-10T10:02:56;0.98;;;0.40;;
80404;SDS011;69733;48.744;9.176;2023-05-10T10:07:58;0.77;;;0.50;;
80404;SDS011;69733;48.744;9.176;2023-05-10T10:10:25;1.33;;;0.60;;
80404;SDS011;69733;48.744;9.176;2023-05-10T10:12:52;1.50;;;0.40;;
80404;SDS011;69733;48.744;9.176;2023-05-10T10:15:21;0.50;;;0.20;;
80404;SDS011;69733;48.744;9.176;2023-05-10T10:17:51;1.10;;;0.40;;
80404;SDS011;69733;48.744;9.176;2023-05-10T10:20:17;0.85;;;0.35;;
80404;SDS011;69733;48.744;9.176;2023-05-10T10:22:44;1.13;;;0.32;;
80404;SDS011;69733;48.744;9.176;2023-05-10T10:25:11;1.60;;;0.52;;
80404;SDS011;69733;48.744;9.176;2023-05-10T10:30:39;1.60;;;0.43;;
80404;SDS011;69733;48.744;9.176;2023-05-10T10:35:50;1.10;;;0.40;;
80404;SDS011;69733;48.744;9.176;2023-05-10T10:38:18;2.25;;;0.32;;
80404;SDS011;69733;48.744;9.176;2023-05-10T10:40:43;1.03;;;0.53;;
80404;SDS011;69733;48.744;9.176;2023-05-10T10:43:25;0.82;;;0.30;;
80404;SDS011;69733;48.744;9.176;2023-05-10T10:48:49;0.90;;;0.35;;
80404;SDS011;69733;48.744;9.176;2023-05-10T10:51:36;1.83;;;0.65;;
80404;SDS011;69733;48.744;9.176;2023-05-10T10:54:11;3.72;;;0.32;;
80404;SDS011;69733;48.744;9.176;2023-05-10T10:56:36;0.77;;;0.35;;
80404;SDS011;69733;48.744;9.176;2023-05-10T10:59:02;1.02;;;0.40;;
80404;SDS011;69733;48.744;9.176;2023-05-10T11:01:32;0.67;;;0.37;;
80404;SDS011;69733;48.744;9.176;2023-05-10T11:06:28;1.40;;;0.37;;
80404;SDS011;69733;48.744;9.176;2023-05-10T11:08:59;0.60;;;0.30;;
80404;SDS011;69733;48.744;9.176;2023-05-10T11:11:30;0.80;;;0.30;;
80404;SDS011;69733;48.744;9.176;2023-05-10T11:13:56;0.82;;;0.30;;
80404;SDS011;69733;48.744;9.176;2023-05-10T11:16:28;1.42;;;0.30;;
80404;SDS011;69733;48.744;9.176;2023-05-10T11:19:10;4.10;;;0.57;;
80404;SDS011;69733;48.744;9.176;2023-05-10T11:22:16;1.58;;;0.57;;
80404;SDS011;69733;48.744;9.176;2023-05-10T11:24:55;1.45;;;0.20;;
80404;SDS011;69733;48.744;9.176;2023-05-10T11:27:22;1.45;;;0.40;;
80404;SDS011;69733;48.744;9.176;2023-05-10T11:29:51;0.55;;;0.40;;
80404;SDS011;69733;48.744;9.176;2023-05-10T11:32:16;1.38;;;0.30;;
80404;SDS011;69733;48.744;9.176;2023-05-10T11:34:42;0.77;;;0.30;;
80404;SDS011;69733;48.744;9.176;2023-05-10T11:37:13;0.70;;;0.30;;
80404;SDS011;69733;48.744;9.176;2023-05-10T11:39:38;1.00;;;0.40;;
80404;SDS011;69733;48.744;9.176;2023-05-10T11:42:27;1.40;;;0.40;;
80404;SDS011;69733;48.744;9.176;2023-05-10T11:44:52;0.85;;;0.30;;
80404;SDS011;69733;48.744;9.176;2023-05-10T11:47:18;2.08;;;0.50;;
80404;SDS011;69733;48.744;9.176;2023-05-10T11:49:47;2.33;;;0.30;;
80404;SDS011;69733;48.744;9.176;2023-05-10T11:52:36;0.70;;;0.30;;
80404;SDS011;69733;48.744;9.176;2023-05-10T11:55:02;0.95;;;0.20;;
80404;SDS011;69733;48.744;9.176;2023-05-10T11:57:30;0.85;;;0.38;;
80404;SDS011;69733;48.744;9.176;2023-05-10T11:59:56;0.98;;;0.45;;
80404;SDS011;69733;48.744;9.176;2023-05-10T12:02:28;2.28;;;0.47;;
80404;SDS011;69733;48.744;9.176;2023-05-10T12:04:54;1.92;;;0.50;;
80404;SDS011;69733;48.744;9.176;2023-05-10T12:07:20;1.33;;;0.30;;
80404;SDS011;69733;48.744;9.176;2023-05-10T12:10:05;1.13;;;0.38;;
80404;SDS011;69733;48.744;9.176;2023-05-10T12:12:40;1.83;;;0.50;;
80404;SDS011;69733;48.744;9.176;2023-05-10T12:15:10;1.83;;;0.63;;
80404;SDS011;69733;48.744;9.176;2023-05-10T12:17:39;1.17;;;0.40;;
80404;SDS011;69733;48.744;9.176;2023-05-10T12:20:15;2.33;;;0.90;;
80404;SDS011;69733;48.744;9.176;2023-05-10T12:22:45;1.35;;;0.65;;
80404;SDS011;69733;48.744;9.176;2023-05-10T12:25:15;2.55;;;0.50;;
80404;SDS011;69733;48.744;9.176;2023-05-10T12:27:46;2.92;;;0.70;;
80404;SDS011;69733;48.744;9.176;2023-05-10T12:30:20;1.83;;;0.57;;
80404;SDS011;69733;48.744;9.176;2023-05-10T12:32:46;1.33;;;0.50;;
80404;SDS011;69733;48.744;9.176;2023-05-10T12:35:11;2.13;;;1.20;;
80404;SDS011;69733;48.744;9.176;2023-05-10T12:37:37;1.48;;;0.52;;
80404;SDS011;69733;48.744;9.176;2023-05-10T12:40:07;2.30;;;0.63;;
80404;SDS011;69733;48.744;9.176;2023-05-10T12:42:34;1.85;;;0.68;;
80404;SDS011;69733;48.744;9.176;2023-05-10T12:45:00;1.20;;;0.60;;
80404;SDS011;69733;48.744;9.176;2023-05-10T12:47:26;2.22;;;0.70;;
80404;SDS011;69733;48.744;9.176;2023-05-10T12:49:52;2.90;;;0.70;;
80404;SDS011;69733;48.744;9.176;2023-05-10T12:52:17;1.75;;;0.60;;
80404;SDS011;69733;48.744;9.176;2023-05-10T12:54:42;1.38;;;0.60;;
80404;SDS011;69733;48.744;9.176;2023-05-10T12:57:08;2.67;;;1.03;;
80404;SDS011;69733;48.744;9.176;2023-05-10T12:59:33;1.80;;;0.70;;
80404;SDS011;69733;48.744;9.176;2023-05-10T13:01:58;1.60;;;0.77;;
80404;SDS011;69733;48.744;9.176;2023-05-10T13:04:23;2.33;;;0.75;;
80404;SDS011;69733;48.744;9.176;2023-05-10T13:06:49;1.83;;;0.70;;
80404;SDS011;69733;48.744;9.176;2023-05-10T13:09:14;1.70;;;0.50;;
80404;SDS011;69733;48.744;9.176;2023-05-10T13:11:45;2.30;;;0.73;;
80404;SDS011;69733;48.744;9.176;2023-05-10T13:14:12;1.63;;;0.70;;
80404;SDS011;69733;48.744;9.176;2023-05-10T13:16:38;2.85;;;0.88;;
80404;SDS011;69733;48.744;9.176;2023-05-10T13:19:03;1.47;;;0.50;;
80404;SDS011;69733;48.744;9.176;2023-05-10T13:21:28;2.73;;;0.70;;
80404;SDS011;69733;48.744;9.176;2023-05-10T13:23:56;1.17;;;0.50;;
80404;SDS011;69733;48.744;9.176;2023-05-10T13:26:22;2.60;;;0.60;;
80404;SDS011;69733;48.744;9.176;2023-05-10T13:28:47;1.40;;;0.60;;
80404;SDS011;69733;48.744;9.176;2023-05-10T13:31:13;1.58;;;0.60;;
80404;SDS011;69733;48.744;9.176;2023-05-10T13:33:38;3.27;;;0.60;;
80404;SDS011;69733;48.744;9.176;2023-05-10T13:36:04;1.85;;;0.80;;
80404;SDS011;69733;48.744;9.176;2023-05-10T13:38:30;2.38;;;0.80;;
80404;SDS011;69733;48.744;9.176;2023-05-10T13:40:55;2.28;;;0.50;;
80404;SDS011;69733;48.744;9.176;2023-05-10T13:43:20;2.22;;;0.70;;
80404;SDS011;69733;48.744;9.176;2023-05-10T13:45:46;2.50;;;0.60;;
80404;SDS011;69733;48.744;9.176;2023-05-10T13:48:11;2.85;;;0.70;;
80404;SDS011;69733;48.744;9.176;2023-05-10T13:50:36;2.05;;;0.60;;
80404;SDS011;69733;48.744;9.176;2023-05-10T13:53:02;1.27;;;0.60;;
80404;SDS011;69733;48.744;9.176;2023-05-10T13:55:27;2.13;;;0.60;;
80404;SDS011;69733;48.744;9.176;2023-05-10T13:57:53;2.13;;;0.50;;
80404;SDS011;69733;48.744;9.176;2023-05-10T14:00:28;2.22;;;0.73;;
80404;SDS011;69733;48.744;9.176;2023-05-10T14:03:16;2.83;;;1.10;;
80404;SDS011;69733;48.744;9.176;2023-05-10T14:05:42;2.60;;;0.80;;
80404;SDS011;69733;48.744;9.176;2023-05-10T14:08:07;4.00;;;0.93;;
80404;SDS011;69733;48.744;9.176;2023-05-10T14:10:34;2.25;;;0.80;;
80404;SDS011;69733;48.744;9.176;2023-05-10T14:12:59;3.10;;;1.10;;
80404;SDS011;69733;48.744;9.176;2023-05-10T14:15:25;1.83;;;0.60;;
80404;SDS011;69733;48.744;9.176;2023-05-10T14:17:50;2.25;;;0.80;;
80404;SDS011;69733;48.744;9.176;2023-05-10T14:20:16;2.30;;;0.93;;
80404;SDS011;69733;48.744;9.176;2023-05-10T14:22:45;1.63;;;0.60;;
80404;SDS011;69733;48.744;9.176;2023-05-10T14:25:10;1.13;;;0.67;;
80404;SDS011;69733;48.744;9.176;2023-05-10T14:27:36;1.48;;;0.80;;
80404;SDS011;69733;48.744;9.176;2023-05-10T14:30:01;4.18;;;1.00;;
80404;SDS011;69733;48.744;9.176;2023-05-10T14:32:27;1.83;;;0.50;;
80404;SDS011;69733;48.744;9.176;2023-05-10T14:34:59;1.90;;;0.60;;
80404;SDS011;69733;48.744;9.176;2023-05-10T14:37:24;1.23;;;0.95;;
80404;SDS011;69733;48.744;9.176;2023-05-10T14:39:50;4.65;;;0.80;;
80404;SDS011;69733;48.744;9.176;2023-05-10T14:42:17;4.05;;;2.55;;
80404;SDS011;69733;48.744;9.176;2023-05-10T14:44:42;2.25;;;0.77;;
80404;SDS011;69733;48.744;9.176;2023-05-10T14:47:08;2.27;;;0.67;;
80404;SDS011;69733;48.744;9.176;2023-05-10T14:49:33;1.63;;;0.52;;
80404;SDS011;69733;48.744;9.176;2023-05-10T14:51:58;1.53;;;0.50;;
80404;SDS011;69733;48.744;9.176;2023-05-10T14:54:24;1.52;;;0.70;;
80404;SDS011;69733;48.744;9.176;2023-05-10T14:56:49;3.33;;;0.50;;
80404;SDS011;69733;48.744;9.176;2023-05-10T14:59:15;1.67;;;0.52;;
80404;SDS011;69733;48.744;9.176;2023-05-10T15:01:40;1.20;;;0.50;;
80404;SDS011;69733;48.744;9.176;2023-05-10T15:04:06;1.42;;;0.70;;
80404;SDS011;69733;48.744;9.176;2023-05-10T15:06:32;1.63;;;0.45;;
80404;SDS011;69733;48.744;9.176;2023-05-10T15:08:59;2.97;;;0.50;;
80404;SDS011;69733;48.744;9.176;2023-05-10T15:11:26;1.15;;;0.57;;
80404;SDS011;69733;48.744;9.176;2023-05-10T15:13:51;1.50;;;0.57;;
80404;SDS011;69733;48.744;9.176;2023-05-10T15:16:17;0.98;;;0.50;;
80404;SDS011;69733;48.744;9.176;2023-05-10T15:18:42;2.45;;;0.85;;
80404;SDS011;69733;48.744;9.176;2023-05-10T15:21:07;3.33;;;0.70;;
80404;SDS011;69733;48.744;9.176;2023-05-10T15:23:33;1.93;;;0.50;;
80404;SDS011;69733;48.744;9.176;2023-05-10T15:25:58;1.73;;;0.70;;
80404;SDS011;69733;48.744;9.176;2023-05-10T15:28:23;1.70;;;0.60;;
80404;SDS011;69733;48.744;9.176;2023-05-10T15:30:48;1.77;;;0.40;;
80404;SDS011;69733;48.744;9.176;2023-05-10T15:33:14;0.90;;;0.43;;
80404;SDS011;69733;48.744;9.176;2023-05-10T15:35:39;5.25;;;0.70;;